sensor_id;sensor_type;location;lat;lon;timestamp;P1;durP1;ratioP1;P2;durP2;ratioP2
62332;SDS011;48624;49.812;8.562;2023-02-15T00:00:01;33.87;;;14.50;;
62332;SDS011;48624;49.812;8.562;2023-02-15T00:02:28;30.90;;;14.07;;
62332;SDS011;48624;49.812;8.562;2023-02-15T00:04:53;33.83;;;13.30;;
62332;SDS011;48624;49.812;8.562;2023-02-15T00:07:20;29.50;;;13.87;;
62332;SDS011;48624;49.812;8.562;2023-02-15T00:09:46;32.47;;;14.23;;
62332;SDS011;48624;49.812;8.562;2023-02-15T00:12:11;27.70;;;13.83;;
62332;SDS011;48624;49.812;8.562;2023-02-15T00:14:37;33.47;;;15.53;;
62332;SDS011;48624;49.812;8.562;2023-02-15T00:17:02;30.63;;;13.87;;
62332;SDS011;48624;49.812;8.562;2023-02-15T00:19:28;32.50;;;14.07;;
62332;SDS011;48624;49.812;8.562;2023-02-15T00:21:53;29.13;;;13.47;;
62332;SDS011;48624;49.812;8.562;2023-02-15T00:24:18;33.43;;;15.20;;
62332;SDS011;48624;49.812;8.562;2023-02-15T00:26:44;34.27;;;14.27;;
62332;SDS011;48624;49.812;8.562;2023-02-15T00:29:11;31.37;;;14.30;;
62332;SDS011;48624;49.812;8.562;2023-02-15T00:31:38;35.27;;;15.27;;
62332;SDS011;48624;49.812;8.562;2023-02-15T00:34:04;28.77;;;14.00;;
62332;SDS011;48624;49.812;8.562;2023-02-15T00:36:40;30.40;;;13.43;;
62332;SDS011;48624;49.812;8.562;2023-02-15T00:39:07;29.77;;;13.33;;
62332;SDS011;48624;49.812;8.562;2023-02-15T00:41:32;27.47;;;13.53;;
62332;SDS011;48624;49.812;8.562;2023-02-15T00:43:58;27.13;;;12.77;;
62332;SDS011;48624;49.812;8.562;2023-02-15T00:46:25;30.40;;;12.90;;
62332;SDS011;48624;49.812;8.562;2023-02-15T00:48:50;32.53;;;14.73;;
62332;SDS011;48624;49.812;8.562;2023-02-15T00:51:16;33.97;;;13.60;;
62332;SDS011;48624;49.812;8.562;2023-02-15T00:53:42;30.90;;;13.83;;
62332;SDS011;48624;49.812;8.562;2023-02-15T00:56:09;29.27;;;13.53;;
62332;SDS011;48624;49.812;8.562;2023-02-15T00:58:35;27.40;;;12.47;;
62332;SDS011;48624;49.812;8.562;2023-02-15T01:01:04;31.53;;;14.23;;
62332;SDS011;48624;49.812;8.562;2023-02-15T01:03:31;34.30;;;15.23;;
62332;SDS011;48624;49.812;8.562;2023-02-15T01:05:56;35.27;;;15.70;;
62332;SDS011;48624;49.812;8.562;2023-02-15T01:08:22;34.63;;;14.03;;
62332;SDS011;48624;49.812;8.562;2023-02-15T01:10:47;34.60;;;15.70;;
62332;SDS011;48624;49.812;8.562;2023-02-15T01:13:14;32.53;;;14.23;;
62332;SDS011;48624;49.812;8.562;2023-02-15T01:15:41;25.90;;;13.77;;
62332;SDS011;48624;49.812;8.562;2023-02-15T01:18:06;27.83;;;13.23;;
62332;SDS011;48624;49.812;8.562;2023-02-15T01:20:34;29.43;;;14.53;;
62332;SDS011;48624;49.812;8.562;2023-02-15T01:23:01;28.23;;;13.93;;
62332;SDS011;48624;49.812;8.562;2023-02-15T01:25:27;31.33;;;13.10;;
62332;SDS011;48624;49.812;8.562;2023-02-15T01:27:53;30.23;;;12.43;;
62332;SDS011;48624;49.812;8.562;2023-02-15T01:30:18;34.93;;;13.40;;
62332;SDS011;48624;49.812;8.562;2023-02-15T01:32:43;31.40;;;13.90;;
62332;SDS011;48624;49.812;8.562;2023-02-15T01:35:09;34.67;;;14.80;;
62332;SDS011;48624;49.812;8.562;2023-02-15T01:37:35;31.13;;;14.20;;
62332;SDS011;48624;49.812;8.562;2023-02-15T01:40:02;33.07;;;13.90;;
62332;SDS011;48624;49.812;8.562;2023-02-15T01:42:30;26.40;;;11.77;;
62332;SDS011;48624;49.812;8.562;2023-02-15T01:44:57;27.20;;;12.60;;
62332;SDS011;48624;49.812;8.562;2023-02-15T01:47:32;30.70;;;14.53;;
62332;SDS011;48624;49.812;8.562;2023-02-15T01:50:10;33.27;;;14.47;;
62332;SDS011;48624;49.812;8.562;2023-02-15T01:52:42;34.77;;;14.53;;
62332;SDS011;48624;49.812;8.562;2023-02-15T01:55:15;32.37;;;14.87;;
62332;SDS011;48624;49.812;8.562;2023-02-15T01:57:40;26.37;;;13.40;;
62332;SDS011;48624;49.812;8.562;2023-02-15T02:00:07;33.67;;;14.83;;
62332;SDS011;48624;49.812;8.562;2023-02-15T02:02:34;34.77;;;15.63;;
62332;SDS011;48624;49.812;8.562;2023-02-15T02:05:01;35.83;;;15.20;;
62332;SDS011;48624;49.812;8.562;2023-02-15T02:07:31;34.87;;;15.23;;
62332;SDS011;48624;49.812;8.562;2023-02-15T02:09:59;37.23;;;15.37;;
62332;SDS011;48624;49.812;8.562;2023-02-15T02:12:25;37.90;;;14.57;;
62332;SDS011;48624;49.812;8.562;2023-02-15T02:14:51;36.70;;;18.70;;
62332;SDS011;48624;49.812;8.562;2023-02-15T02:20:16;35.30;;;15.53;;
62332;SDS011;48624;49.812;8.562;2023-02-15T02:28:49;34.97;;;15.47;;
62332;SDS011;48624;49.812;8.562;2023-02-15T02:35:08;39.63;;;15.37;;
62332;SDS011;48624;49.812;8.562;2023-02-15T02:40:25;36.97;;;16.23;;
62332;SDS011;48624;49.812;8.562;2023-02-15T02:45:40;38.47;;;15.03;;
62332;SDS011;48624;49.812;8.562;2023-02-15T02:48:13;39.20;;;15.37;;
62332;SDS011;48624;49.812;8.562;2023-02-15T02:50:42;37.07;;;16.47;;
62332;SDS011;48624;49.812;8.562;2023-02-15T02:53:08;34.10;;;13.57;;
62332;SDS011;48624;49.812;8.562;2023-02-15T02:55:40;33.83;;;14.77;;
62332;SDS011;48624;49.812;8.562;2023-02-15T02:58:29;37.53;;;13.97;;
62332;SDS011;48624;49.812;8.562;2023-02-15T03:01:19;40.83;;;15.47;;
62332;SDS011;48624;49.812;8.562;2023-02-15T03:03:56;36.90;;;14.80;;
62332;SDS011;48624;49.812;8.562;2023-02-15T03:06:30;30.50;;;12.90;;
62332;SDS011;48624;49.812;8.562;2023-02-15T03:09:14;31.43;;;13.53;;
62332;SDS011;48624;49.812;8.562;2023-02-15T03:11:45;36.77;;;14.27;;
62332;SDS011;48624;49.812;8.562;2023-02-15T03:14:12;30.67;;;14.37;;
62332;SDS011;48624;49.812;8.562;2023-02-15T03:16:40;38.87;;;15.07;;
62332;SDS011;48624;49.812;8.562;2023-02-15T03:19:08;43.70;;;14.87;;
62332;SDS011;48624;49.812;8.562;2023-02-15T03:21:42;35.80;;;14.67;;
62332;SDS011;48624;49.812;8.562;2023-02-15T03:24:15;29.77;;;13.60;;
62332;SDS011;48624;49.812;8.562;2023-02-15T03:26:45;41.73;;;15.43;;
62332;SDS011;48624;49.812;8.562;2023-02-15T03:29:13;37.57;;;14.80;;
62332;SDS011;48624;49.812;8.562;2023-02-15T03:31:42;39.63;;;15.00;;
62332;SDS011;48624;49.812;8.562;2023-02-15T03:34:11;36.77;;;16.50;;
62332;SDS011;48624;49.812;8.562;2023-02-15T03:41:57;33.87;;;14.70;;
62332;SDS011;48624;49.812;8.562;2023-02-15T03:44:41;39.80;;;13.97;;
62332;SDS011;48624;49.812;8.562;2023-02-15T03:47:19;38.00;;;14.17;;
62332;SDS011;48624;49.812;8.562;2023-02-15T03:49:50;41.00;;;15.53;;
62332;SDS011;48624;49.812;8.562;2023-02-15T03:52:20;37.57;;;15.00;;
62332;SDS011;48624;49.812;8.562;2023-02-15T03:54:48;37.13;;;14.83;;
62332;SDS011;48624;49.812;8.562;2023-02-15T03:57:21;36.37;;;13.73;;
62332;SDS011;48624;49.812;8.562;2023-02-15T04:05:34;32.30;;;13.50;;
62332;SDS011;48624;49.812;8.562;2023-02-15T04:08:00;33.50;;;13.00;;
62332;SDS011;48624;49.812;8.562;2023-02-15T04:10:25;35.17;;;13.63;;
62332;SDS011;48624;49.812;8.562;2023-02-15T04:13:09;39.40;;;14.20;;
62332;SDS011;48624;49.812;8.562;2023-02-15T04:15:35;35.30;;;13.23;;
62332;SDS011;48624;49.812;8.562;2023-02-15T04:18:18;40.53;;;14.10;;
62332;SDS011;48624;49.812;8.562;2023-02-15T04:20:44;37.77;;;14.67;;
62332;SDS011;48624;49.812;8.562;2023-02-15T04:23:28;32.70;;;12.77;;
62332;SDS011;48624;49.812;8.562;2023-02-15T04:26:12;30.47;;;12.30;;
62332;SDS011;48624;49.812;8.562;2023-02-15T04:28:38;34.33;;;13.00;;
62332;SDS011;48624;49.812;8.562;2023-02-15T04:31:03;34.67;;;12.40;;
62332;SDS011;48624;49.812;8.562;2023-02-15T04:33:28;35.40;;;14.23;;
62332;SDS011;48624;49.812;8.562;2023-02-15T04:35:54;43.83;;;15.87;;
62332;SDS011;48624;49.812;8.562;2023-02-15T04:38:19;33.57;;;13.53;;
62332;SDS011;48624;49.812;8.562;2023-02-15T04:40:48;33.60;;;14.40;;
62332;SDS011;48624;49.812;8.562;2023-02-15T04:43:15;32.90;;;12.73;;
62332;SDS011;48624;49.812;8.562;2023-02-15T04:45:40;41.03;;;15.23;;
62332;SDS011;48624;49.812;8.562;2023-02-15T04:48:06;36.83;;;13.73;;
62332;SDS011;48624;49.812;8.562;2023-02-15T04:50:31;39.50;;;13.47;;
62332;SDS011;48624;49.812;8.562;2023-02-15T04:52:56;34.37;;;14.33;;
62332;SDS011;48624;49.812;8.562;2023-02-15T04:55:22;40.23;;;14.47;;
62332;SDS011;48624;49.812;8.562;2023-02-15T04:57:47;30.63;;;12.53;;
62332;SDS011;48624;49.812;8.562;2023-02-15T05:00:12;39.10;;;15.43;;
62332;SDS011;48624;49.812;8.562;2023-02-15T05:02:38;38.87;;;14.33;;
62332;SDS011;48624;49.812;8.562;2023-02-15T05:05:03;36.23;;;14.00;;
62332;SDS011;48624;49.812;8.562;2023-02-15T05:07:29;37.23;;;14.60;;
62332;SDS011;48624;49.812;8.562;2023-02-15T05:09:54;40.50;;;13.60;;
62332;SDS011;48624;49.812;8.562;2023-02-15T05:12:19;53.13;;;14.07;;
62332;SDS011;48624;49.812;8.562;2023-02-15T05:14:44;39.27;;;14.70;;
62332;SDS011;48624;49.812;8.562;2023-02-15T05:17:10;37.97;;;15.23;;
62332;SDS011;48624;49.812;8.562;2023-02-15T05:19:35;39.63;;;15.77;;
62332;SDS011;48624;49.812;8.562;2023-02-15T05:22:00;47.20;;;15.00;;
62332;SDS011;48624;49.812;8.562;2023-02-15T05:24:26;41.87;;;14.73;;
62332;SDS011;48624;49.812;8.562;2023-02-15T05:27:14;47.83;;;15.07;;
62332;SDS011;48624;49.812;8.562;2023-02-15T05:29:57;44.13;;;15.17;;
62332;SDS011;48624;49.812;8.562;2023-02-15T05:32:23;38.77;;;15.07;;
62332;SDS011;48624;49.812;8.562;2023-02-15T05:34:48;37.57;;;13.63;;
62332;SDS011;48624;49.812;8.562;2023-02-15T05:37:14;42.07;;;15.30;;
62332;SDS011;48624;49.812;8.562;2023-02-15T05:39:39;35.50;;;14.27;;
62332;SDS011;48624;49.812;8.562;2023-02-15T05:42:04;45.87;;;14.37;;
62332;SDS011;48624;49.812;8.562;2023-02-15T05:44:30;44.77;;;17.43;;
62332;SDS011;48624;49.812;8.562;2023-02-15T05:46:56;37.60;;;14.73;;
62332;SDS011;48624;49.812;8.562;2023-02-15T05:49:21;37.97;;;14.47;;
62332;SDS011;48624;49.812;8.562;2023-02-15T05:51:48;41.00;;;15.47;;
62332;SDS011;48624;49.812;8.562;2023-02-15T05:54:13;42.73;;;14.93;;
62332;SDS011;48624;49.812;8.562;2023-02-15T05:56:39;39.67;;;15.20;;
62332;SDS011;48624;49.812;8.562;2023-02-15T05:59:04;46.43;;;16.70;;
62332;SDS011;48624;49.812;8.562;2023-02-15T06:01:29;57.30;;;26.23;;
62332;SDS011;48624;49.812;8.562;2023-02-15T06:03:54;40.57;;;15.57;;
62332;SDS011;48624;49.812;8.562;2023-02-15T06:06:20;39.17;;;15.23;;
62332;SDS011;48624;49.812;8.562;2023-02-15T06:08:46;39.57;;;15.40;;
62332;SDS011;48624;49.812;8.562;2023-02-15T06:11:12;45.50;;;16.73;;
62332;SDS011;48624;49.812;8.562;2023-02-15T06:13:37;39.53;;;15.53;;
62332;SDS011;48624;49.812;8.562;2023-02-15T06:16:03;41.13;;;16.73;;
62332;SDS011;48624;49.812;8.562;2023-02-15T06:18:28;48.03;;;17.90;;
62332;SDS011;48624;49.812;8.562;2023-02-15T06:20:53;43.90;;;16.63;;
62332;SDS011;48624;49.812;8.562;2023-02-15T06:23:19;38.73;;;15.67;;
62332;SDS011;48624;49.812;8.562;2023-02-15T06:25:44;36.30;;;14.97;;
62332;SDS011;48624;49.812;8.562;2023-02-15T06:28:10;35.60;;;15.90;;
62332;SDS011;48624;49.812;8.562;2023-02-15T06:30:36;44.43;;;17.17;;
62332;SDS011;48624;49.812;8.562;2023-02-15T06:33:01;36.13;;;14.97;;
62332;SDS011;48624;49.812;8.562;2023-02-15T06:35:26;41.20;;;14.70;;
62332;SDS011;48624;49.812;8.562;2023-02-15T06:37:52;38.90;;;15.17;;
62332;SDS011;48624;49.812;8.562;2023-02-15T06:40:17;41.93;;;15.10;;
62332;SDS011;48624;49.812;8.562;2023-02-15T06:42:42;40.93;;;16.70;;
62332;SDS011;48624;49.812;8.562;2023-02-15T06:45:08;38.90;;;15.50;;
62332;SDS011;48624;49.812;8.562;2023-02-15T06:47:35;46.97;;;15.80;;
62332;SDS011;48624;49.812;8.562;2023-02-15T06:50:00;43.50;;;17.27;;
62332;SDS011;48624;49.812;8.562;2023-02-15T06:52:26;45.23;;;15.30;;
62332;SDS011;48624;49.812;8.562;2023-02-15T06:54:51;45.67;;;17.07;;
62332;SDS011;48624;49.812;8.562;2023-02-15T06:57:16;42.87;;;15.63;;
62332;SDS011;48624;49.812;8.562;2023-02-15T06:59:43;40.10;;;15.63;;
62332;SDS011;48624;49.812;8.562;2023-02-15T07:02:09;42.17;;;16.07;;
62332;SDS011;48624;49.812;8.562;2023-02-15T07:04:36;51.00;;;15.10;;
62332;SDS011;48624;49.812;8.562;2023-02-15T07:07:01;37.93;;;14.13;;
62332;SDS011;48624;49.812;8.562;2023-02-15T07:09:27;40.70;;;15.30;;
62332;SDS011;48624;49.812;8.562;2023-02-15T07:11:53;45.07;;;17.20;;
62332;SDS011;48624;49.812;8.562;2023-02-15T07:14:37;34.93;;;13.77;;
62332;SDS011;48624;49.812;8.562;2023-02-15T07:17:02;40.53;;;15.00;;
62332;SDS011;48624;49.812;8.562;2023-02-15T07:19:28;47.40;;;16.70;;
62332;SDS011;48624;49.812;8.562;2023-02-15T07:21:53;32.67;;;14.33;;
62332;SDS011;48624;49.812;8.562;2023-02-15T07:24:19;36.23;;;15.27;;
62332;SDS011;48624;49.812;8.562;2023-02-15T07:26:44;41.97;;;14.73;;
62332;SDS011;48624;49.812;8.562;2023-02-15T07:29:09;41.87;;;15.07;;
62332;SDS011;48624;49.812;8.562;2023-02-15T07:31:35;40.80;;;14.97;;
62332;SDS011;48624;49.812;8.562;2023-02-15T07:34:00;42.67;;;16.00;;
62332;SDS011;48624;49.812;8.562;2023-02-15T07:36:26;44.00;;;15.87;;
62332;SDS011;48624;49.812;8.562;2023-02-15T07:38:51;43.10;;;15.37;;
62332;SDS011;48624;49.812;8.562;2023-02-15T07:41:16;45.10;;;16.87;;
62332;SDS011;48624;49.812;8.562;2023-02-15T07:43:42;43.70;;;15.83;;
62332;SDS011;48624;49.812;8.562;2023-02-15T07:46:11;46.17;;;16.43;;
62332;SDS011;48624;49.812;8.562;2023-02-15T07:48:38;55.00;;;18.40;;
62332;SDS011;48624;49.812;8.562;2023-02-15T07:51:06;52.07;;;16.93;;
62332;SDS011;48624;49.812;8.562;2023-02-15T07:53:33;52.20;;;18.33;;
62332;SDS011;48624;49.812;8.562;2023-02-15T07:55:59;45.83;;;17.07;;
62332;SDS011;48624;49.812;8.562;2023-02-15T07:58:25;54.27;;;18.13;;
62332;SDS011;48624;49.812;8.562;2023-02-15T08:01:10;53.83;;;16.23;;
62332;SDS011;48624;49.812;8.562;2023-02-15T08:03:35;54.83;;;17.90;;
62332;SDS011;48624;49.812;8.562;2023-02-15T08:06:01;52.30;;;18.43;;
62332;SDS011;48624;49.812;8.562;2023-02-15T08:08:26;46.77;;;17.87;;
62332;SDS011;48624;49.812;8.562;2023-02-15T08:14:11;62.83;;;20.07;;
62332;SDS011;48624;49.812;8.562;2023-02-15T08:19:10;44.13;;;16.43;;
62332;SDS011;48624;49.812;8.562;2023-02-15T08:21:36;49.53;;;17.53;;
62332;SDS011;48624;49.812;8.562;2023-02-15T08:24:04;45.63;;;15.97;;
62332;SDS011;48624;49.812;8.562;2023-02-15T08:26:31;40.20;;;15.80;;
62332;SDS011;48624;49.812;8.562;2023-02-15T08:28:56;49.23;;;17.07;;
62332;SDS011;48624;49.812;8.562;2023-02-15T08:31:24;47.57;;;17.20;;
62332;SDS011;48624;49.812;8.562;2023-02-15T08:33:51;49.00;;;16.50;;
62332;SDS011;48624;49.812;8.562;2023-02-15T08:36:19;47.17;;;17.53;;
62332;SDS011;48624;49.812;8.562;2023-02-15T08:38:46;50.07;;;17.33;;
62332;SDS011;48624;49.812;8.562;2023-02-15T08:43:48;51.90;;;17.33;;
62332;SDS011;48624;49.812;8.562;2023-02-15T08:46:18;49.70;;;17.80;;
62332;SDS011;48624;49.812;8.562;2023-02-15T08:48:45;49.30;;;18.63;;
62332;SDS011;48624;49.812;8.562;2023-02-15T08:51:12;47.73;;;17.40;;
62332;SDS011;48624;49.812;8.562;2023-02-15T08:53:46;47.33;;;16.73;;
62332;SDS011;48624;49.812;8.562;2023-02-15T08:56:14;48.53;;;17.60;;
62332;SDS011;48624;49.812;8.562;2023-02-15T08:58:41;54.60;;;19.67;;
62332;SDS011;48624;49.812;8.562;2023-02-15T09:03:35;49.77;;;16.70;;
62332;SDS011;48624;49.812;8.562;2023-02-15T09:06:01;47.33;;;17.07;;
62332;SDS011;48624;49.812;8.562;2023-02-15T09:08:26;53.30;;;19.00;;
62332;SDS011;48624;49.812;8.562;2023-02-15T09:10:53;52.63;;;20.17;;
62332;SDS011;48624;49.812;8.562;2023-02-15T09:13:19;43.67;;;17.10;;
62332;SDS011;48624;49.812;8.562;2023-02-15T09:15:45;46.63;;;18.30;;
62332;SDS011;48624;49.812;8.562;2023-02-15T09:18:11;45.03;;;18.13;;
62332;SDS011;48624;49.812;8.562;2023-02-15T09:20:41;56.57;;;19.57;;
62332;SDS011;48624;49.812;8.562;2023-02-15T09:23:09;47.17;;;17.43;;
62332;SDS011;48624;49.812;8.562;2023-02-15T09:25:34;49.87;;;20.03;;
62332;SDS011;48624;49.812;8.562;2023-02-15T09:27:59;55.23;;;18.87;;
62332;SDS011;48624;49.812;8.562;2023-02-15T09:30:25;49.93;;;18.33;;
62332;SDS011;48624;49.812;8.562;2023-02-15T09:32:50;52.80;;;18.67;;
62332;SDS011;48624;49.812;8.562;2023-02-15T09:35:15;46.00;;;19.27;;
62332;SDS011;48624;49.812;8.562;2023-02-15T09:37:41;56.90;;;21.00;;
62332;SDS011;48624;49.812;8.562;2023-02-15T09:40:06;51.93;;;18.83;;
62332;SDS011;48624;49.812;8.562;2023-02-15T09:51:12;48.33;;;18.47;;
62332;SDS011;48624;49.812;8.562;2023-02-15T09:56:33;49.87;;;19.83;;
62332;SDS011;48624;49.812;8.562;2023-02-15T09:59:19;50.90;;;18.60;;
62332;SDS011;48624;49.812;8.562;2023-02-15T10:05:03;50.57;;;18.97;;
62332;SDS011;48624;49.812;8.562;2023-02-15T10:10:21;51.47;;;19.73;;
62332;SDS011;48624;49.812;8.562;2023-02-15T10:18:54;52.87;;;20.23;;
62332;SDS011;48624;49.812;8.562;2023-02-15T10:27:14;55.53;;;20.20;;
62332;SDS011;48624;49.812;8.562;2023-02-15T10:29:51;56.80;;;21.93;;
62332;SDS011;48624;49.812;8.562;2023-02-15T10:43:57;55.97;;;20.57;;
62332;SDS011;48624;49.812;8.562;2023-02-15T10:51:48;54.27;;;22.50;;
62332;SDS011;48624;49.812;8.562;2023-02-15T10:54:23;46.17;;;18.17;;
62332;SDS011;48624;49.812;8.562;2023-02-15T11:05:37;53.20;;;21.40;;
62332;SDS011;48624;49.812;8.562;2023-02-15T11:08:08;51.20;;;19.37;;
62332;SDS011;48624;49.812;8.562;2023-02-15T11:10:47;55.30;;;21.97;;
62332;SDS011;48624;49.812;8.562;2023-02-15T11:13:22;64.07;;;23.20;;
62332;SDS011;48624;49.812;8.562;2023-02-15T11:15:56;64.53;;;25.03;;
62332;SDS011;48624;49.812;8.562;2023-02-15T11:18:32;50.20;;;19.37;;
62332;SDS011;48624;49.812;8.562;2023-02-15T11:21:01;54.63;;;21.40;;
62332;SDS011;48624;49.812;8.562;2023-02-15T11:23:32;56.07;;;21.87;;
62332;SDS011;48624;49.812;8.562;2023-02-15T11:26:02;63.30;;;22.73;;
62332;SDS011;48624;49.812;8.562;2023-02-15T11:28:39;49.00;;;19.60;;
62332;SDS011;48624;49.812;8.562;2023-02-15T11:31:21;63.37;;;25.40;;
62332;SDS011;48624;49.812;8.562;2023-02-15T11:33:51;61.70;;;26.20;;
62332;SDS011;48624;49.812;8.562;2023-02-15T11:36:21;51.53;;;24.53;;
62332;SDS011;48624;49.812;8.562;2023-02-15T11:38:52;57.57;;;22.77;;
62332;SDS011;48624;49.812;8.562;2023-02-15T11:41:24;56.50;;;22.07;;
62332;SDS011;48624;49.812;8.562;2023-02-15T11:44:08;55.50;;;21.97;;
62332;SDS011;48624;49.812;8.562;2023-02-15T11:46:40;47.80;;;22.13;;
62332;SDS011;48624;49.812;8.562;2023-02-15T11:51:55;55.03;;;23.07;;
62332;SDS011;48624;49.812;8.562;2023-02-15T11:54:25;51.27;;;22.43;;
62332;SDS011;48624;49.812;8.562;2023-02-15T11:56:55;48.23;;;21.47;;
62332;SDS011;48624;49.812;8.562;2023-02-15T11:59:27;52.80;;;21.23;;
62332;SDS011;48624;49.812;8.562;2023-02-15T12:01:57;55.63;;;24.07;;
62332;SDS011;48624;49.812;8.562;2023-02-15T12:04:29;49.37;;;24.60;;
62332;SDS011;48624;49.812;8.562;2023-02-15T12:12:33;51.13;;;23.17;;
62332;SDS011;48624;49.812;8.562;2023-02-15T12:15:00;55.17;;;26.47;;
62332;SDS011;48624;49.812;8.562;2023-02-15T12:17:50;54.30;;;23.27;;
62332;SDS011;48624;49.812;8.562;2023-02-15T12:22:49;55.17;;;24.93;;
62332;SDS011;48624;49.812;8.562;2023-02-15T12:25:37;51.10;;;24.13;;
62332;SDS011;48624;49.812;8.562;2023-02-15T12:30:57;57.10;;;27.07;;
62332;SDS011;48624;49.812;8.562;2023-02-15T12:33:30;50.60;;;25.87;;
62332;SDS011;48624;49.812;8.562;2023-02-15T12:36:04;51.70;;;24.77;;
62332;SDS011;48624;49.812;8.562;2023-02-15T12:38:36;49.00;;;22.60;;
62332;SDS011;48624;49.812;8.562;2023-02-15T12:41:03;55.13;;;26.42;;
62332;SDS011;48624;49.812;8.562;2023-02-15T12:48:43;48.37;;;23.03;;
62332;SDS011;48624;49.812;8.562;2023-02-15T12:51:12;49.43;;;24.13;;
62332;SDS011;48624;49.812;8.562;2023-02-15T12:53:40;56.83;;;26.93;;
62332;SDS011;48624;49.812;8.562;2023-02-15T12:56:07;49.40;;;24.60;;
62332;SDS011;48624;49.812;8.562;2023-02-15T12:58:38;49.10;;;23.03;;
62332;SDS011;48624;49.812;8.562;2023-02-15T13:01:12;48.65;;;21.80;;
62332;SDS011;48624;49.812;8.562;2023-02-15T13:06:26;46.23;;;21.80;;
62332;SDS011;48624;49.812;8.562;2023-02-15T13:08:55;40.73;;;20.77;;
62332;SDS011;48624;49.812;8.562;2023-02-15T13:11:26;49.30;;;23.57;;
62332;SDS011;48624;49.812;8.562;2023-02-15T13:16:28;47.57;;;22.07;;
62332;SDS011;48624;49.812;8.562;2023-02-15T13:18:58;42.20;;;21.00;;
62332;SDS011;48624;49.812;8.562;2023-02-15T13:21:31;42.07;;;21.30;;
62332;SDS011;48624;49.812;8.562;2023-02-15T13:26:42;42.23;;;19.77;;
62332;SDS011;48624;49.812;8.562;2023-02-15T13:29:43;38.10;;;19.90;;
62332;SDS011;48624;49.812;8.562;2023-02-15T13:32:10;42.20;;;21.20;;
62332;SDS011;48624;49.812;8.562;2023-02-15T13:34:42;41.33;;;20.63;;
62332;SDS011;48624;49.812;8.562;2023-02-15T13:37:14;44.17;;;20.57;;
62332;SDS011;48624;49.812;8.562;2023-02-15T13:39:47;43.37;;;22.03;;
62332;SDS011;48624;49.812;8.562;2023-02-15T13:55:50;37.07;;;20.93;;
62332;SDS011;48624;49.812;8.562;2023-02-15T14:04:28;37.53;;;18.50;;
62332;SDS011;48624;49.812;8.562;2023-02-15T14:07:18;36.27;;;17.57;;
62332;SDS011;48624;49.812;8.562;2023-02-15T14:13:08;35.77;;;19.37;;
62332;SDS011;48624;49.812;8.562;2023-02-15T14:21:31;36.60;;;17.93;;
62332;SDS011;48624;49.812;8.562;2023-02-15T14:26:44;38.50;;;18.80;;
62332;SDS011;48624;49.812;8.562;2023-02-15T14:29:33;42.87;;;21.57;;
62332;SDS011;48624;49.812;8.562;2023-02-15T14:32:12;38.10;;;21.17;;
62332;SDS011;48624;49.812;8.562;2023-02-15T14:34:53;37.60;;;20.70;;
62332;SDS011;48624;49.812;8.562;2023-02-15T14:38:07;45.45;;;21.42;;
62332;SDS011;48624;49.812;8.562;2023-02-15T14:43:19;43.30;;;22.17;;
62332;SDS011;48624;49.812;8.562;2023-02-15T14:45:49;42.40;;;20.90;;
62332;SDS011;48624;49.812;8.562;2023-02-15T14:50:46;40.47;;;21.58;;
62332;SDS011;48624;49.812;8.562;2023-02-15T14:56:18;52.03;;;26.17;;
62332;SDS011;48624;49.812;8.562;2023-02-15T15:01:16;45.95;;;24.80;;
62332;SDS011;48624;49.812;8.562;2023-02-15T15:03:55;42.63;;;23.80;;
62332;SDS011;48624;49.812;8.562;2023-02-15T15:06:30;44.90;;;21.23;;
62332;SDS011;48624;49.812;8.562;2023-02-15T15:09:08;42.23;;;24.87;;
62332;SDS011;48624;49.812;8.562;2023-02-15T15:11:47;60.93;;;35.13;;
62332;SDS011;48624;49.812;8.562;2023-02-15T15:16:59;45.30;;;24.00;;
62332;SDS011;48624;49.812;8.562;2023-02-15T15:19:59;43.10;;;20.97;;
62332;SDS011;48624;49.812;8.562;2023-02-15T15:22:27;39.33;;;20.70;;
62332;SDS011;48624;49.812;8.562;2023-02-15T15:24:54;44.83;;;22.33;;
62332;SDS011;48624;49.812;8.562;2023-02-15T15:27:44;47.47;;;21.80;;
62332;SDS011;48624;49.812;8.562;2023-02-15T15:32:43;44.77;;;21.47;;
62332;SDS011;48624;49.812;8.562;2023-02-15T15:41:16;44.38;;;22.40;;
62332;SDS011;48624;49.812;8.562;2023-02-15T15:49:35;41.63;;;22.37;;
62332;SDS011;48624;49.812;8.562;2023-02-15T15:52:08;48.17;;;22.97;;
62332;SDS011;48624;49.812;8.562;2023-02-15T15:54:38;47.70;;;22.37;;
62332;SDS011;48624;49.812;8.562;2023-02-15T15:57:06;45.60;;;23.57;;
62332;SDS011;48624;49.812;8.562;2023-02-15T15:59:43;52.47;;;25.37;;
62332;SDS011;48624;49.812;8.562;2023-02-15T16:02:14;41.63;;;19.97;;
62332;SDS011;48624;49.812;8.562;2023-02-15T16:04:41;45.63;;;23.97;;
62332;SDS011;48624;49.812;8.562;2023-02-15T16:07:20;52.93;;;24.90;;
62332;SDS011;48624;49.812;8.562;2023-02-15T16:12:32;47.63;;;23.93;;
62332;SDS011;48624;49.812;8.562;2023-02-15T16:15:04;44.97;;;21.70;;
62332;SDS011;48624;49.812;8.562;2023-02-15T16:18:03;52.97;;;24.03;;
62332;SDS011;48624;49.812;8.562;2023-02-15T16:20:30;48.30;;;25.40;;
62332;SDS011;48624;49.812;8.562;2023-02-15T16:23:06;51.47;;;24.83;;
62332;SDS011;48624;49.812;8.562;2023-02-15T16:25:49;46.83;;;23.43;;
62332;SDS011;48624;49.812;8.562;2023-02-15T16:28:33;51.47;;;23.33;;
62332;SDS011;48624;49.812;8.562;2023-02-15T16:31:12;53.27;;;25.70;;
62332;SDS011;48624;49.812;8.562;2023-02-15T16:33:39;54.27;;;24.97;;
62332;SDS011;48624;49.812;8.562;2023-02-15T16:36:09;53.83;;;23.87;;
62332;SDS011;48624;49.812;8.562;2023-02-15T16:41:24;47.93;;;23.80;;
62332;SDS011;48624;49.812;8.562;2023-02-15T16:43:52;47.17;;;22.53;;
62332;SDS011;48624;49.812;8.562;2023-02-15T16:48:48;49.73;;;24.00;;
62332;SDS011;48624;49.812;8.562;2023-02-15T16:51:35;48.97;;;25.43;;
62332;SDS011;48624;49.812;8.562;2023-02-15T16:54:05;51.43;;;25.97;;
62332;SDS011;48624;49.812;8.562;2023-02-15T16:56:35;54.63;;;24.80;;
62332;SDS011;48624;49.812;8.562;2023-02-15T16:59:01;45.73;;;22.80;;
62332;SDS011;48624;49.812;8.562;2023-02-15T17:01:30;53.33;;;24.30;;
62332;SDS011;48624;49.812;8.562;2023-02-15T17:07:06;53.77;;;23.73;;
62332;SDS011;48624;49.812;8.562;2023-02-15T17:09:51;51.20;;;24.77;;
62332;SDS011;48624;49.812;8.562;2023-02-15T17:15:28;53.17;;;24.73;;
62332;SDS011;48624;49.812;8.562;2023-02-15T17:17:55;63.13;;;28.43;;
62332;SDS011;48624;49.812;8.562;2023-02-15T17:20:24;58.83;;;26.87;;
62332;SDS011;48624;49.812;8.562;2023-02-15T17:22:50;60.50;;;27.50;;
62332;SDS011;48624;49.812;8.562;2023-02-15T17:25:18;56.13;;;27.27;;
62332;SDS011;48624;49.812;8.562;2023-02-15T17:27:50;60.47;;;27.13;;
62332;SDS011;48624;49.812;8.562;2023-02-15T17:30:17;59.00;;;27.53;;
62332;SDS011;48624;49.812;8.562;2023-02-15T17:32:52;101.93;;;40.23;;
62332;SDS011;48624;49.812;8.562;2023-02-15T17:35:21;95.93;;;43.67;;
62332;SDS011;48624;49.812;8.562;2023-02-15T17:37:49;58.37;;;29.57;;
62332;SDS011;48624;49.812;8.562;2023-02-15T17:40:26;64.23;;;29.07;;
62332;SDS011;48624;49.812;8.562;2023-02-15T17:42:53;63.37;;;31.97;;
62332;SDS011;48624;49.812;8.562;2023-02-15T17:45:19;56.10;;;26.60;;
62332;SDS011;48624;49.812;8.562;2023-02-15T17:47:46;68.43;;;30.17;;
62332;SDS011;48624;49.812;8.562;2023-02-15T17:50:21;61.80;;;28.67;;